MDT,Max TemperatureF,Mean TemperatureF,Min TemperatureF,Max Dew PointF,MeanDew PointF,Min DewpointF,Max Humidity, Mean Humidity, Min Humidity, Max Sea Level PressureIn, Mean Sea Level PressureIn, Min Sea Level PressureIn, Max VisibilityMiles, Mean VisibilityMiles, Min VisibilityMiles, Max Wind SpeedMPH, Mean Wind SpeedMPH, Max Gust SpeedMPH,PrecipitationIn, CloudCover, Events, WindDirDegrees
2014-3-1,62,50,38,40,31,20,82,56,30,29.90,29.82,29.76,10,10,10,35,12,42,0.04,7,Rain,176
2014-3-2,57,47,37,39,31,22,89,59,28,30.12,29.95,29.83,10,10,10,24,12,32,0.02,6,Rain,230
2014-3-3,57,46,34,30,26,22,75,51,26,30.14,30.06,29.98,10,10,10,10,4,12,0.00,4,,240
2014-3-4,56,43,30,40,28,23,83,55,27,30.05,29.94,29.83,10,10,10,22,4,29,0.02,6,,353
2014-3-5,63,52,40,36,26,13,76,45,14,30.12,30.03,29.89,10,10,10,22,8,29,0.00,2,,349
2014-3-6,62,48,34,25,21,17,64,41,17,30.19,30.02,29.85,10,10,10,12,3,12,0.00,5,,132
2014-3-7,64,51,38,33,23,19,45,34,23,29.88,29.81,29.73,10,10,10,25,11,32,T,5,,323
2014-3-8,53,45,36,28,23,19,70,49,28,30.32,30.15,29.90,10,10,10,29,12,33,0.00,4,,78
2014-3-9,62,47,31,25,16,4,69,40,11,30.40,30.27,30.14,10,10,10,12,5,15,0.00,1,,30
2014-3-10,68,49,30,13,10,7,38,25,11,30.14,29.99,29.82,10,10,10,12,5,14,0.00,1,,179
2014-3-11,61,50,39,19,12,2,36,24,12,30.03,29.86,29.75,10,10,10,29,13,36,0.00,1,,323
2014-3-12,53,43,32,17,13,10,49,35,21,30.33,30.23,30.07,10,10,10,30,12,38,0.00,1,,113
2014-3-13,62,48,33,34,19,14,58,32,9,30.20,30.04,29.84,10,10,10,21,5,31,0.00,3,,249
2014-3-14,59,48,36,43,35,32,89,65,40,30.06,29.97,29.87,10,10,7,29,8,33,0.14,6,Rain-Thunderstorm,99
2014-3-15,57,47,37,40,32,11,100,63,25,30.13,29.99,29.84,10,6,0,35,13,44,T,6,Fog,358
2014-3-16,60,47,33,15,11,6,40,27,13,30.31,30.18,30.07,10,10,10,21,8,26,0.00,0,,347
2014-3-17,75,56,36,17,11,2,40,23,6,30.06,29.73,29.44,10,10,10,40,15,52,0.00,4,,195
2014-3-18,55,45,35,13,2,-4,27,18,9,30.00,29.75,29.46,10,10,10,29,14,38,0.00,1,,321
2014-3-19,58,45,31,14,8,1,43,27,10,30.23,30.13,30.01,10,10,7,22,7,25,0.00,0,,13
2014-3-20,68,48,27,13,6,1,37,23,8,30.19,30.02,29.85,10,10,10,16,6,23,0.00,3,,182
2014-3-21,71,55,39,17,8,-1,30,18,6,29.90,29.82,29.72,10,10,10,36,9,42,0.00,3,,201
2014-3-22,64,52,39,20,17,11,41,27,13,29.99,29.92,29.84,10,10,10,28,8,33,0.00,4,,24
2014-3-23,62,50,38,23,21,18,50,35,20,30.20,30.08,29.99,10,10,10,36,10,44,0.00,4,,91
2014-3-24,69,53,36,22,9,-2,48,27,6,30.11,30.04,29.96,10,10,10,30,10,34,0.00,0,,344
2014-3-25,69,53,37,34,18,10,46,29,12,30.14,29.98,29.82,10,10,9,33,8,41,T,3,,233
2014-3-26,68,55,41,42,29,14,83,48,13,29.95,29.66,29.47,10,10,5,46,14,61,T,5,Rain,195
2014-3-27,63,53,42,30,22,17,57,37,17,29.84,29.74,29.63,10,10,10,23,11,31,0.00,4,,303
2014-3-28,63,53,42,22,17,11,40,27,14,30.10,29.96,29.82,10,10,10,25,11,33,0.00,3,,323
2014-3-29,68,53,37,20,15,11,40,26,12,30.22,30.09,29.94,10,10,10,18,8,23,0.00,2,,188
2014-3-30,74,59,43,20,15,5,37,23,9,29.94,29.80,29.63,10,10,10,33,14,43,0.00,6,,208
2014-3-31,65,54,42,17,10,5,33,22,10,29.97,29.87,29.77,10,10,10,18,9,25,0.00,1,,351